sensor_id;sensor_type;location;lat;lon;timestamp;temperature;humidity
16655;DHT22;8441;51.344;7.022;2023-09-30T00:00:20;11.30;99.90
16655;DHT22;8441;51.344;7.022;2023-09-30T00:02:47;11.30;99.90
16655;DHT22;8441;51.344;7.022;2023-09-30T00:05:14;11.30;99.90
16655;DHT22;8441;51.344;7.022;2023-09-30T00:07:46;11.40;99.90
16655;DHT22;8441;51.344;7.022;2023-09-30T00:10:14;11.30;99.90
16655;DHT22;8441;51.344;7.022;2023-09-30T00:12:41;11.30;99.90
16655;DHT22;8441;51.344;7.022;2023-09-30T00:15:10;11.40;99.90
16655;DHT22;8441;51.344;7.022;2023-09-30T00:17:37;11.40;99.90
16655;DHT22;8441;51.344;7.022;2023-09-30T00:20:05;11.40;99.90
16655;DHT22;8441;51.344;7.022;2023-09-30T00:22:32;11.40;99.90
16655;DHT22;8441;51.344;7.022;2023-09-30T00:25:01;11.50;99.90
16655;DHT22;8441;51.344;7.022;2023-09-30T00:27:28;11.60;99.90
16655;DHT22;8441;51.344;7.022;2023-09-30T00:29:56;11.70;99.90
16655;DHT22;8441;51.344;7.022;2023-09-30T00:32:23;11.70;99.90
16655;DHT22;8441;51.344;7.022;2023-09-30T00:34:50;11.60;99.90
16655;DHT22;8441;51.344;7.022;2023-09-30T00:37:18;11.60;99.90
16655;DHT22;8441;51.344;7.022;2023-09-30T00:39:45;11.60;99.90
16655;DHT22;8441;51.344;7.022;2023-09-30T00:42:14;11.60;99.90
16655;DHT22;8441;51.344;7.022;2023-09-30T00:44:41;11.60;99.90
16655;DHT22;8441;51.344;7.022;2023-09-30T00:47:08;11.50;99.90
16655;DHT22;8441;51.344;7.022;2023-09-30T00:49:36;11.50;99.90
16655;DHT22;8441;51.344;7.022;2023-09-30T00:52:04;11.50;99.90
16655;DHT22;8441;51.344;7.022;2023-09-30T00:54:31;11.50;99.90
16655;DHT22;8441;51.344;7.022;2023-09-30T00:56:59;11.50;99.90
16655;DHT22;8441;51.344;7.022;2023-09-30T00:59:29;11.50;99.90
16655;DHT22;8441;51.344;7.022;2023-09-30T01:01:59;11.50;99.90
16655;DHT22;8441;51.344;7.022;2023-09-30T01:04:27;11.50;99.90
16655;DHT22;8441;51.344;7.022;2023-09-30T01:06:55;11.50;99.90
16655;DHT22;8441;51.344;7.022;2023-09-30T01:09:23;11.50;99.90
16655;DHT22;8441;51.344;7.022;2023-09-30T01:11:51;11.50;99.90
16655;DHT22;8441;51.344;7.022;2023-09-30T01:14:25;11.40;99.90
16655;DHT22;8441;51.344;7.022;2023-09-30T01:16:54;11.40;99.90
16655;DHT22;8441;51.344;7.022;2023-09-30T01:19:21;11.40;99.90
16655;DHT22;8441;51.344;7.022;2023-09-30T01:21:52;11.50;99.90
16655;DHT22;8441;51.344;7.022;2023-09-30T01:24:20;11.60;99.90
16655;DHT22;8441;51.344;7.022;2023-09-30T01:26:48;11.60;99.90
16655;DHT22;8441;51.344;7.022;2023-09-30T01:29:15;11.60;99.90
16655;DHT22;8441;51.344;7.022;2023-09-30T01:31:42;11.60;99.90
16655;DHT22;8441;51.344;7.022;2023-09-30T01:34:13;11.50;99.90
16655;DHT22;8441;51.344;7.022;2023-09-30T01:36:41;11.40;99.90
16655;DHT22;8441;51.344;7.022;2023-09-30T01:39:10;11.40;99.90
16655;DHT22;8441;51.344;7.022;2023-09-30T01:41:37;11.40;99.90
16655;DHT22;8441;51.344;7.022;2023-09-30T01:44:05;11.40;99.90
16655;DHT22;8441;51.344;7.022;2023-09-30T01:46:33;11.40;99.90
16655;DHT22;8441;51.344;7.022;2023-09-30T01:49:00;11.40;99.90
16655;DHT22;8441;51.344;7.022;2023-09-30T01:51:28;11.50;99.90
16655;DHT22;8441;51.344;7.022;2023-09-30T01:53:55;11.50;99.90
16655;DHT22;8441;51.344;7.022;2023-09-30T01:56:24;11.50;99.90
16655;DHT22;8441;51.344;7.022;2023-09-30T01:58:51;11.50;99.90
16655;DHT22;8441;51.344;7.022;2023-09-30T02:01:18;11.40;99.90
16655;DHT22;8441;51.344;7.022;2023-09-30T02:03:45;11.30;99.90
16655;DHT22;8441;51.344;7.022;2023-09-30T02:06:13;11.20;99.90
16655;DHT22;8441;51.344;7.022;2023-09-30T02:08:40;11.20;99.90
16655;DHT22;8441;51.344;7.022;2023-09-30T02:11:07;11.10;99.90
16655;DHT22;8441;51.344;7.022;2023-09-30T02:13:36;11.10;99.90
16655;DHT22;8441;51.344;7.022;2023-09-30T02:16:04;11.10;99.90
16655;DHT22;8441;51.344;7.022;2023-09-30T02:18:31;11.10;99.90
16655;DHT22;8441;51.344;7.022;2023-09-30T02:20:59;11.10;99.90
16655;DHT22;8441;51.344;7.022;2023-09-30T02:23:26;11.00;99.90
16655;DHT22;8441;51.344;7.022;2023-09-30T02:25:53;11.10;99.90
16655;DHT22;8441;51.344;7.022;2023-09-30T02:28:21;11.00;99.90
16655;DHT22;8441;51.344;7.022;2023-09-30T02:30:49;11.00;99.90
16655;DHT22;8441;51.344;7.022;2023-09-30T02:33:16;11.00;99.90
16655;DHT22;8441;51.344;7.022;2023-09-30T02:35:44;11.00;99.90
16655;DHT22;8441;51.344;7.022;2023-09-30T02:38:12;10.90;99.90
16655;DHT22;8441;51.344;7.022;2023-09-30T02:40:41;10.80;99.90
16655;DHT22;8441;51.344;7.022;2023-09-30T02:43:12;10.80;99.90
16655;DHT22;8441;51.344;7.022;2023-09-30T02:45:39;10.80;99.90
16655;DHT22;8441;51.344;7.022;2023-09-30T02:48:08;10.80;99.90
16655;DHT22;8441;51.344;7.022;2023-09-30T02:50:35;10.90;99.90
16655;DHT22;8441;51.344;7.022;2023-09-30T02:53:02;10.80;99.90
16655;DHT22;8441;51.344;7.022;2023-09-30T02:55:30;10.80;99.90
16655;DHT22;8441;51.344;7.022;2023-09-30T02:57:57;10.80;99.90
16655;DHT22;8441;51.344;7.022;2023-09-30T03:00:26;10.80;99.90
16655;DHT22;8441;51.344;7.022;2023-09-30T03:03:00;10.70;99.90
16655;DHT22;8441;51.344;7.022;2023-09-30T03:05:30;10.70;99.90
16655;DHT22;8441;51.344;7.022;2023-09-30T03:07:59;10.70;99.90
16655;DHT22;8441;51.344;7.022;2023-09-30T03:10:26;10.70;99.90
16655;DHT22;8441;51.344;7.022;2023-09-30T03:12:54;10.70;99.90
16655;DHT22;8441;51.344;7.022;2023-09-30T03:15:22;10.70;99.90
16655;DHT22;8441;51.344;7.022;2023-09-30T03:17:50;10.60;99.90
16655;DHT22;8441;51.344;7.022;2023-09-30T03:20:17;10.60;99.90
16655;DHT22;8441;51.344;7.022;2023-09-30T03:22:47;10.70;99.90
16655;DHT22;8441;51.344;7.022;2023-09-30T03:25:16;10.70;99.90
16655;DHT22;8441;51.344;7.022;2023-09-30T03:27:44;10.80;99.90
16655;DHT22;8441;51.344;7.022;2023-09-30T03:30:13;10.80;99.90
16655;DHT22;8441;51.344;7.022;2023-09-30T03:32:41;10.80;99.90
16655;DHT22;8441;51.344;7.022;2023-09-30T03:35:10;10.70;99.90
16655;DHT22;8441;51.344;7.022;2023-09-30T03:37:40;10.70;99.90
16655;DHT22;8441;51.344;7.022;2023-09-30T03:40:10;10.80;99.90
16655;DHT22;8441;51.344;7.022;2023-09-30T03:42:40;10.80;99.90
16655;DHT22;8441;51.344;7.022;2023-09-30T03:45:08;11.00;99.90
16655;DHT22;8441;51.344;7.022;2023-09-30T03:47:36;11.10;99.90
16655;DHT22;8441;51.344;7.022;2023-09-30T03:50:05;11.00;99.90
16655;DHT22;8441;51.344;7.022;2023-09-30T03:52:38;10.90;99.90
16655;DHT22;8441;51.344;7.022;2023-09-30T03:55:06;10.80;99.90
16655;DHT22;8441;51.344;7.022;2023-09-30T03:57:35;10.80;99.90
16655;DHT22;8441;51.344;7.022;2023-09-30T04:00:03;10.80;99.90
16655;DHT22;8441;51.344;7.022;2023-09-30T04:02:32;10.80;99.90
16655;DHT22;8441;51.344;7.022;2023-09-30T04:05:00;10.90;99.90
16655;DHT22;8441;51.344;7.022;2023-09-30T04:07:30;10.90;99.90
16655;DHT22;8441;51.344;7.022;2023-09-30T04:09:58;10.90;99.90
16655;DHT22;8441;51.344;7.022;2023-09-30T04:12:26;10.90;99.90
16655;DHT22;8441;51.344;7.022;2023-09-30T04:14:55;10.80;99.90
16655;DHT22;8441;51.344;7.022;2023-09-30T04:17:24;10.80;99.90
16655;DHT22;8441;51.344;7.022;2023-09-30T04:19:52;10.80;99.90
16655;DHT22;8441;51.344;7.022;2023-09-30T04:22:19;10.80;99.90
16655;DHT22;8441;51.344;7.022;2023-09-30T04:24:48;10.80;99.90
16655;DHT22;8441;51.344;7.022;2023-09-30T04:27:16;10.80;99.90
16655;DHT22;8441;51.344;7.022;2023-09-30T04:29:43;10.80;99.90
16655;DHT22;8441;51.344;7.022;2023-09-30T04:32:12;10.80;99.90
16655;DHT22;8441;51.344;7.022;2023-09-30T04:34:39;10.80;99.90
16655;DHT22;8441;51.344;7.022;2023-09-30T04:37:06;10.80;99.90
16655;DHT22;8441;51.344;7.022;2023-09-30T04:39:34;10.70;99.90
16655;DHT22;8441;51.344;7.022;2023-09-30T04:42:02;10.70;99.90
16655;DHT22;8441;51.344;7.022;2023-09-30T04:44:30;10.70;99.90
16655;DHT22;8441;51.344;7.022;2023-09-30T04:46:58;10.70;99.90
16655;DHT22;8441;51.344;7.022;2023-09-30T04:49:27;10.70;99.90
16655;DHT22;8441;51.344;7.022;2023-09-30T04:51:54;10.60;99.90
16655;DHT22;8441;51.344;7.022;2023-09-30T04:54:21;10.60;99.90
16655;DHT22;8441;51.344;7.022;2023-09-30T04:56:49;10.50;99.90
16655;DHT22;8441;51.344;7.022;2023-09-30T04:59:16;10.60;99.90
16655;DHT22;8441;51.344;7.022;2023-09-30T05:01:44;10.60;99.90
16655;DHT22;8441;51.344;7.022;2023-09-30T05:04:11;10.50;99.90
16655;DHT22;8441;51.344;7.022;2023-09-30T05:06:40;10.40;99.90
16655;DHT22;8441;51.344;7.022;2023-09-30T05:09:07;10.40;99.90
16655;DHT22;8441;51.344;7.022;2023-09-30T05:11:35;10.30;99.90
16655;DHT22;8441;51.344;7.022;2023-09-30T05:14:02;10.30;99.90
16655;DHT22;8441;51.344;7.022;2023-09-30T05:16:31;10.30;99.90
16655;DHT22;8441;51.344;7.022;2023-09-30T05:18:58;10.30;99.90
16655;DHT22;8441;51.344;7.022;2023-09-30T05:21:25;10.30;99.90
16655;DHT22;8441;51.344;7.022;2023-09-30T05:23:54;10.20;99.90
16655;DHT22;8441;51.344;7.022;2023-09-30T05:26:22;10.20;99.90
16655;DHT22;8441;51.344;7.022;2023-09-30T05:28:49;10.20;99.90
16655;DHT22;8441;51.344;7.022;2023-09-30T05:31:17;10.20;99.90
16655;DHT22;8441;51.344;7.022;2023-09-30T05:33:44;10.20;99.90
16655;DHT22;8441;51.344;7.022;2023-09-30T05:36:11;10.30;99.90
16655;DHT22;8441;51.344;7.022;2023-09-30T05:38:39;10.30;99.90
16655;DHT22;8441;51.344;7.022;2023-09-30T05:41:08;10.40;99.90
16655;DHT22;8441;51.344;7.022;2023-09-30T05:43:35;10.40;99.90
16655;DHT22;8441;51.344;7.022;2023-09-30T05:46:02;10.40;99.90
16655;DHT22;8441;51.344;7.022;2023-09-30T05:48:29;10.50;99.90
16655;DHT22;8441;51.344;7.022;2023-09-30T05:50:57;10.50;99.90
16655;DHT22;8441;51.344;7.022;2023-09-30T05:53:24;10.50;99.90
16655;DHT22;8441;51.344;7.022;2023-09-30T05:55:53;10.50;99.90
16655;DHT22;8441;51.344;7.022;2023-09-30T05:58:22;10.50;99.90
16655;DHT22;8441;51.344;7.022;2023-09-30T06:00:49;10.50;99.90
16655;DHT22;8441;51.344;7.022;2023-09-30T06:03:16;10.60;99.90
16655;DHT22;8441;51.344;7.022;2023-09-30T06:05:44;10.60;99.90
16655;DHT22;8441;51.344;7.022;2023-09-30T06:08:12;10.70;99.90
16655;DHT22;8441;51.344;7.022;2023-09-30T06:10:40;10.80;99.90
16655;DHT22;8441;51.344;7.022;2023-09-30T06:13:10;10.80;99.90
16655;DHT22;8441;51.344;7.022;2023-09-30T06:15:39;11.00;99.90
16655;DHT22;8441;51.344;7.022;2023-09-30T06:18:07;11.00;99.90
16655;DHT22;8441;51.344;7.022;2023-09-30T06:20:35;11.00;99.90
16655;DHT22;8441;51.344;7.022;2023-09-30T06:23:02;11.10;99.90
16655;DHT22;8441;51.344;7.022;2023-09-30T06:25:30;11.20;99.90
16655;DHT22;8441;51.344;7.022;2023-09-30T06:27:59;11.30;99.90
16655;DHT22;8441;51.344;7.022;2023-09-30T06:30:26;11.30;99.90
16655;DHT22;8441;51.344;7.022;2023-09-30T06:32:57;11.40;99.90
16655;DHT22;8441;51.344;7.022;2023-09-30T06:35:26;11.40;99.90
16655;DHT22;8441;51.344;7.022;2023-09-30T06:37:53;11.40;99.90
16655;DHT22;8441;51.344;7.022;2023-09-30T06:40:20;11.40;99.90
16655;DHT22;8441;51.344;7.022;2023-09-30T06:42:47;11.40;99.90
16655;DHT22;8441;51.344;7.022;2023-09-30T06:45:15;11.50;99.90
16655;DHT22;8441;51.344;7.022;2023-09-30T06:47:43;11.50;99.90
16655;DHT22;8441;51.344;7.022;2023-09-30T06:50:13;11.50;99.90
16655;DHT22;8441;51.344;7.022;2023-09-30T06:52:42;11.50;99.90
16655;DHT22;8441;51.344;7.022;2023-09-30T06:55:11;11.60;99.90
16655;DHT22;8441;51.344;7.022;2023-09-30T06:57:42;11.60;99.90
16655;DHT22;8441;51.344;7.022;2023-09-30T07:00:10;11.70;99.90
16655;DHT22;8441;51.344;7.022;2023-09-30T07:02:39;11.70;99.90
16655;DHT22;8441;51.344;7.022;2023-09-30T07:05:08;11.80;99.90
16655;DHT22;8441;51.344;7.022;2023-09-30T07:07:36;11.80;99.90
16655;DHT22;8441;51.344;7.022;2023-09-30T07:10:06;11.90;99.90
16655;DHT22;8441;51.344;7.022;2023-09-30T07:12:33;11.90;99.90
16655;DHT22;8441;51.344;7.022;2023-09-30T07:15:01;11.90;99.90
16655;DHT22;8441;51.344;7.022;2023-09-30T07:17:28;12.00;99.90
16655;DHT22;8441;51.344;7.022;2023-09-30T07:19:56;12.00;99.90
16655;DHT22;8441;51.344;7.022;2023-09-30T07:22:23;12.00;99.90
16655;DHT22;8441;51.344;7.022;2023-09-30T07:24:52;12.10;99.90
16655;DHT22;8441;51.344;7.022;2023-09-30T07:27:19;12.10;99.90
16655;DHT22;8441;51.344;7.022;2023-09-30T07:29:46;12.20;99.90
16655;DHT22;8441;51.344;7.022;2023-09-30T07:32:13;12.20;99.90
16655;DHT22;8441;51.344;7.022;2023-09-30T07:34:41;12.20;99.90
16655;DHT22;8441;51.344;7.022;2023-09-30T07:37:08;12.20;99.90
16655;DHT22;8441;51.344;7.022;2023-09-30T07:39:35;12.20;99.90
16655;DHT22;8441;51.344;7.022;2023-09-30T07:42:04;12.30;99.90
16655;DHT22;8441;51.344;7.022;2023-09-30T07:44:31;12.30;99.90
16655;DHT22;8441;51.344;7.022;2023-09-30T07:46:59;12.40;99.90
16655;DHT22;8441;51.344;7.022;2023-09-30T07:49:26;12.50;99.90
16655;DHT22;8441;51.344;7.022;2023-09-30T07:51:53;12.50;99.90
16655;DHT22;8441;51.344;7.022;2023-09-30T07:54:20;12.50;99.90
16655;DHT22;8441;51.344;7.022;2023-09-30T07:56:48;12.60;99.90
16655;DHT22;8441;51.344;7.022;2023-09-30T07:59:17;12.60;99.90
16655;DHT22;8441;51.344;7.022;2023-09-30T08:01:44;12.60;99.90
16655;DHT22;8441;51.344;7.022;2023-09-30T08:04:12;12.70;99.90
16655;DHT22;8441;51.344;7.022;2023-09-30T08:06:39;12.70;99.90
16655;DHT22;8441;51.344;7.022;2023-09-30T08:09:08;12.80;99.90
16655;DHT22;8441;51.344;7.022;2023-09-30T08:11:38;12.90;99.90
16655;DHT22;8441;51.344;7.022;2023-09-30T08:14:06;12.90;99.90
16655;DHT22;8441;51.344;7.022;2023-09-30T08:16:37;13.00;99.90
16655;DHT22;8441;51.344;7.022;2023-09-30T08:19:04;13.00;99.90
16655;DHT22;8441;51.344;7.022;2023-09-30T08:21:31;13.10;99.90
16655;DHT22;8441;51.344;7.022;2023-09-30T08:23:59;13.20;99.90
16655;DHT22;8441;51.344;7.022;2023-09-30T08:26:26;13.20;99.90
16655;DHT22;8441;51.344;7.022;2023-09-30T08:28:53;13.30;99.90
16655;DHT22;8441;51.344;7.022;2023-09-30T08:31:21;13.30;99.90
16655;DHT22;8441;51.344;7.022;2023-09-30T08:33:50;13.40;99.90
16655;DHT22;8441;51.344;7.022;2023-09-30T08:36:18;13.50;99.90
16655;DHT22;8441;51.344;7.022;2023-09-30T08:38:45;13.50;99.90
16655;DHT22;8441;51.344;7.022;2023-09-30T08:41:16;13.60;99.90
16655;DHT22;8441;51.344;7.022;2023-09-30T08:43:45;13.60;99.90
16655;DHT22;8441;51.344;7.022;2023-09-30T08:46:13;13.70;99.90
16655;DHT22;8441;51.344;7.022;2023-09-30T08:48:42;13.80;99.90
16655;DHT22;8441;51.344;7.022;2023-09-30T08:51:13;13.80;99.90
16655;DHT22;8441;51.344;7.022;2023-09-30T08:53:40;13.90;99.90
16655;DHT22;8441;51.344;7.022;2023-09-30T08:56:09;13.90;99.90
16655;DHT22;8441;51.344;7.022;2023-09-30T08:58:38;14.00;99.90
16655;DHT22;8441;51.344;7.022;2023-09-30T09:01:05;14.00;99.90
16655;DHT22;8441;51.344;7.022;2023-09-30T09:03:35;14.10;99.90
16655;DHT22;8441;51.344;7.022;2023-09-30T09:06:03;14.10;99.90
16655;DHT22;8441;51.344;7.022;2023-09-30T09:08:32;14.10;99.90
16655;DHT22;8441;51.344;7.022;2023-09-30T09:11:00;14.10;99.90
16655;DHT22;8441;51.344;7.022;2023-09-30T09:13:46;14.20;99.90
16655;DHT22;8441;51.344;7.022;2023-09-30T09:16:15;14.30;99.90
16655;DHT22;8441;51.344;7.022;2023-09-30T09:18:44;14.30;99.90
16655;DHT22;8441;51.344;7.022;2023-09-30T09:21:14;14.30;99.90
16655;DHT22;8441;51.344;7.022;2023-09-30T09:23:44;14.40;99.90
16655;DHT22;8441;51.344;7.022;2023-09-30T09:26:12;14.50;99.90
16655;DHT22;8441;51.344;7.022;2023-09-30T09:28:39;14.60;99.90
16655;DHT22;8441;51.344;7.022;2023-09-30T09:31:21;14.70;99.90
16655;DHT22;8441;51.344;7.022;2023-09-30T09:33:49;14.80;99.90
16655;DHT22;8441;51.344;7.022;2023-09-30T09:36:17;14.90;99.90
16655;DHT22;8441;51.344;7.022;2023-09-30T09:38:49;15.10;99.90
16655;DHT22;8441;51.344;7.022;2023-09-30T09:41:19;15.30;99.90
16655;DHT22;8441;51.344;7.022;2023-09-30T09:43:48;15.40;99.90
16655;DHT22;8441;51.344;7.022;2023-09-30T09:46:17;15.30;99.90
16655;DHT22;8441;51.344;7.022;2023-09-30T09:48:45;15.50;99.90
16655;DHT22;8441;51.344;7.022;2023-09-30T09:51:13;15.50;99.90
16655;DHT22;8441;51.344;7.022;2023-09-30T09:53:41;15.80;99.90
16655;DHT22;8441;51.344;7.022;2023-09-30T09:56:11;15.80;99.90
16655;DHT22;8441;51.344;7.022;2023-09-30T09:58:40;16.00;99.90
16655;DHT22;8441;51.344;7.022;2023-09-30T10:01:09;16.00;99.90
16655;DHT22;8441;51.344;7.022;2023-09-30T10:03:38;16.20;99.90
16655;DHT22;8441;51.344;7.022;2023-09-30T10:06:06;16.30;99.90
16655;DHT22;8441;51.344;7.022;2023-09-30T10:08:39;16.30;99.90
16655;DHT22;8441;51.344;7.022;2023-09-30T10:11:07;16.00;99.90
16655;DHT22;8441;51.344;7.022;2023-09-30T10:13:55;16.00;99.90
16655;DHT22;8441;51.344;7.022;2023-09-30T10:16:47;15.90;99.90
16655;DHT22;8441;51.344;7.022;2023-09-30T10:19:17;16.00;99.90
16655;DHT22;8441;51.344;7.022;2023-09-30T10:22:21;16.00;99.90
16655;DHT22;8441;51.344;7.022;2023-09-30T10:24:49;16.20;99.90
16655;DHT22;8441;51.344;7.022;2023-09-30T10:27:35;16.40;99.90
16655;DHT22;8441;51.344;7.022;2023-09-30T10:30:12;16.50;99.90
16655;DHT22;8441;51.344;7.022;2023-09-30T10:33:13;16.60;99.90
16655;DHT22;8441;51.344;7.022;2023-09-30T10:35:48;16.60;99.90
16655;DHT22;8441;51.344;7.022;2023-09-30T10:38:37;16.80;99.90
16655;DHT22;8441;51.344;7.022;2023-09-30T10:41:07;16.80;99.90
16655;DHT22;8441;51.344;7.022;2023-09-30T10:43:36;16.90;99.90
16655;DHT22;8441;51.344;7.022;2023-09-30T10:46:31;16.90;99.90
16655;DHT22;8441;51.344;7.022;2023-09-30T10:49:30;17.00;99.90
16655;DHT22;8441;51.344;7.022;2023-09-30T10:52:01;17.20;99.90
16655;DHT22;8441;51.344;7.022;2023-09-30T10:54:29;17.30;99.90
16655;DHT22;8441;51.344;7.022;2023-09-30T10:56:59;17.30;99.90
16655;DHT22;8441;51.344;7.022;2023-09-30T10:59:27;17.40;99.90
16655;DHT22;8441;51.344;7.022;2023-09-30T11:01:57;17.60;99.90
16655;DHT22;8441;51.344;7.022;2023-09-30T11:04:24;17.70;99.90
16655;DHT22;8441;51.344;7.022;2023-09-30T11:06:54;17.70;99.90
16655;DHT22;8441;51.344;7.022;2023-09-30T11:09:22;17.60;99.90
16655;DHT22;8441;51.344;7.022;2023-09-30T11:11:51;17.60;99.90
16655;DHT22;8441;51.344;7.022;2023-09-30T11:14:20;17.80;99.90
16655;DHT22;8441;51.344;7.022;2023-09-30T11:16:49;17.80;99.90
16655;DHT22;8441;51.344;7.022;2023-09-30T11:19:18;17.90;99.90
16655;DHT22;8441;51.344;7.022;2023-09-30T11:21:48;17.90;99.90
16655;DHT22;8441;51.344;7.022;2023-09-30T11:24:15;17.90;99.90
16655;DHT22;8441;51.344;7.022;2023-09-30T11:26:43;17.90;99.90
16655;DHT22;8441;51.344;7.022;2023-09-30T11:29:12;17.90;99.90
16655;DHT22;8441;51.344;7.022;2023-09-30T11:31:42;17.90;99.90
16655;DHT22;8441;51.344;7.022;2023-09-30T11:34:10;18.00;99.90
16655;DHT22;8441;51.344;7.022;2023-09-30T11:36:40;18.10;99.90
16655;DHT22;8441;51.344;7.022;2023-09-30T11:39:08;18.30;99.90
16655;DHT22;8441;51.344;7.022;2023-09-30T11:41:38;18.40;99.90
16655;DHT22;8441;51.344;7.022;2023-09-30T11:44:08;18.60;99.90
16655;DHT22;8441;51.344;7.022;2023-09-30T11:46:52;18.40;99.90
16655;DHT22;8441;51.344;7.022;2023-09-30T11:49:31;18.20;99.90
16655;DHT22;8441;51.344;7.022;2023-09-30T11:52:03;18.20;99.90
16655;DHT22;8441;51.344;7.022;2023-09-30T11:54:31;18.30;99.90
16655;DHT22;8441;51.344;7.022;2023-09-30T11:57:00;18.50;99.90
16655;DHT22;8441;51.344;7.022;2023-09-30T11:59:27;18.60;99.90
16655;DHT22;8441;51.344;7.022;2023-09-30T12:01:55;18.70;99.90
16655;DHT22;8441;51.344;7.022;2023-09-30T12:04:22;18.70;99.90
16655;DHT22;8441;51.344;7.022;2023-09-30T12:06:50;18.70;99.90
16655;DHT22;8441;51.344;7.022;2023-09-30T12:09:19;18.50;99.90
16655;DHT22;8441;51.344;7.022;2023-09-30T12:11:51;18.40;99.90
16655;DHT22;8441;51.344;7.022;2023-09-30T12:14:22;18.40;99.90
16655;DHT22;8441;51.344;7.022;2023-09-30T12:16:49;18.30;99.90
16655;DHT22;8441;51.344;7.022;2023-09-30T12:19:16;18.10;99.90
16655;DHT22;8441;51.344;7.022;2023-09-30T12:21:45;18.00;99.90
16655;DHT22;8441;51.344;7.022;2023-09-30T12:24:14;18.10;99.90
16655;DHT22;8441;51.344;7.022;2023-09-30T12:26:45;18.20;99.90
16655;DHT22;8441;51.344;7.022;2023-09-30T12:29:14;18.40;99.90
16655;DHT22;8441;51.344;7.022;2023-09-30T12:31:42;18.40;99.90
16655;DHT22;8441;51.344;7.022;2023-09-30T12:34:10;18.50;99.90
16655;DHT22;8441;51.344;7.022;2023-09-30T12:36:38;18.50;99.90
16655;DHT22;8441;51.344;7.022;2023-09-30T12:39:06;18.70;99.90
16655;DHT22;8441;51.344;7.022;2023-09-30T12:41:36;18.60;99.90
16655;DHT22;8441;51.344;7.022;2023-09-30T12:44:05;18.60;99.90
16655;DHT22;8441;51.344;7.022;2023-09-30T12:46:33;18.60;99.90
16655;DHT22;8441;51.344;7.022;2023-09-30T12:49:02;18.60;99.90
16655;DHT22;8441;51.344;7.022;2023-09-30T12:51:30;18.50;99.90
16655;DHT22;8441;51.344;7.022;2023-09-30T12:53:59;18.50;99.90
16655;DHT22;8441;51.344;7.022;2023-09-30T12:56:27;18.40;99.90
16655;DHT22;8441;51.344;7.022;2023-09-30T12:58:55;18.40;99.90
16655;DHT22;8441;51.344;7.022;2023-09-30T13:01:24;18.50;99.90
16655;DHT22;8441;51.344;7.022;2023-09-30T13:03:51;18.50;99.90
16655;DHT22;8441;51.344;7.022;2023-09-30T13:06:19;18.50;99.90
16655;DHT22;8441;51.344;7.022;2023-09-30T13:08:46;18.40;99.90
16655;DHT22;8441;51.344;7.022;2023-09-30T13:11:14;18.40;99.90
16655;DHT22;8441;51.344;7.022;2023-09-30T13:13:41;18.30;99.90
16655;DHT22;8441;51.344;7.022;2023-09-30T13:16:10;18.30;99.90
16655;DHT22;8441;51.344;7.022;2023-09-30T13:18:39;18.30;99.90
16655;DHT22;8441;51.344;7.022;2023-09-30T13:21:06;18.40;99.90
16655;DHT22;8441;51.344;7.022;2023-09-30T13:23:34;18.40;99.90
16655;DHT22;8441;51.344;7.022;2023-09-30T13:26:02;18.40;99.90
16655;DHT22;8441;51.344;7.022;2023-09-30T13:28:30;18.40;99.90
16655;DHT22;8441;51.344;7.022;2023-09-30T13:30:57;18.40;99.90
16655;DHT22;8441;51.344;7.022;2023-09-30T13:33:24;18.30;99.90
16655;DHT22;8441;51.344;7.022;2023-09-30T13:35:53;18.20;99.90
16655;DHT22;8441;51.344;7.022;2023-09-30T13:38:21;18.10;99.90
16655;DHT22;8441;51.344;7.022;2023-09-30T13:40:49;18.00;99.90
16655;DHT22;8441;51.344;7.022;2023-09-30T13:43:16;17.90;99.90
16655;DHT22;8441;51.344;7.022;2023-09-30T13:45:43;17.90;99.90
16655;DHT22;8441;51.344;7.022;2023-09-30T13:48:10;18.00;99.90
16655;DHT22;8441;51.344;7.022;2023-09-30T13:50:38;18.00;99.90
16655;DHT22;8441;51.344;7.022;2023-09-30T13:53:08;18.00;99.90
16655;DHT22;8441;51.344;7.022;2023-09-30T13:55:38;18.10;99.90
16655;DHT22;8441;51.344;7.022;2023-09-30T13:58:05;18.10;99.90
16655;DHT22;8441;51.344;7.022;2023-09-30T14:00:32;18.30;99.90
16655;DHT22;8441;51.344;7.022;2023-09-30T14:03:00;18.30;99.90
16655;DHT22;8441;51.344;7.022;2023-09-30T14:05:27;18.40;99.90
16655;DHT22;8441;51.344;7.022;2023-09-30T14:07:54;18.60;99.90
16655;DHT22;8441;51.344;7.022;2023-09-30T14:10:23;18.70;99.90
16655;DHT22;8441;51.344;7.022;2023-09-30T14:12:50;18.60;99.90
16655;DHT22;8441;51.344;7.022;2023-09-30T14:15:18;18.60;99.90
16655;DHT22;8441;51.344;7.022;2023-09-30T14:17:46;18.50;99.90
16655;DHT22;8441;51.344;7.022;2023-09-30T14:20:13;18.60;99.90
16655;DHT22;8441;51.344;7.022;2023-09-30T14:22:40;18.60;99.90
16655;DHT22;8441;51.344;7.022;2023-09-30T14:25:08;18.70;99.90
16655;DHT22;8441;51.344;7.022;2023-09-30T14:27:37;18.70;99.90
16655;DHT22;8441;51.344;7.022;2023-09-30T14:30:05;18.70;99.90
16655;DHT22;8441;51.344;7.022;2023-09-30T14:32:32;18.70;99.90
16655;DHT22;8441;51.344;7.022;2023-09-30T14:34:59;18.70;99.90
16655;DHT22;8441;51.344;7.022;2023-09-30T14:37:26;18.50;99.90
16655;DHT22;8441;51.344;7.022;2023-09-30T14:39:55;18.30;99.90
16655;DHT22;8441;51.344;7.022;2023-09-30T14:42:22;18.20;99.90
16655;DHT22;8441;51.344;7.022;2023-09-30T14:44:50;18.20;99.90
16655;DHT22;8441;51.344;7.022;2023-09-30T14:47:18;18.20;99.90
16655;DHT22;8441;51.344;7.022;2023-09-30T14:49:45;18.20;99.90
16655;DHT22;8441;51.344;7.022;2023-09-30T14:52:14;18.20;99.90
16655;DHT22;8441;51.344;7.022;2023-09-30T14:54:42;18.30;99.90
16655;DHT22;8441;51.344;7.022;2023-09-30T14:57:09;18.20;99.90
16655;DHT22;8441;51.344;7.022;2023-09-30T14:59:37;18.20;99.90
16655;DHT22;8441;51.344;7.022;2023-09-30T15:02:07;18.20;99.90
16655;DHT22;8441;51.344;7.022;2023-09-30T15:04:35;18.00;99.90
16655;DHT22;8441;51.344;7.022;2023-09-30T15:07:02;18.00;99.90
16655;DHT22;8441;51.344;7.022;2023-09-30T15:09:29;17.90;99.90
16655;DHT22;8441;51.344;7.022;2023-09-30T15:11:56;17.80;99.90
16655;DHT22;8441;51.344;7.022;2023-09-30T15:14:23;17.80;99.90
16655;DHT22;8441;51.344;7.022;2023-09-30T15:16:51;17.80;99.90
16655;DHT22;8441;51.344;7.022;2023-09-30T15:19:21;17.80;99.90
16655;DHT22;8441;51.344;7.022;2023-09-30T15:21:48;17.80;99.90
16655;DHT22;8441;51.344;7.022;2023-09-30T15:24:16;17.80;99.90
16655;DHT22;8441;51.344;7.022;2023-09-30T15:26:43;17.80;99.90
16655;DHT22;8441;51.344;7.022;2023-09-30T15:29:10;17.80;99.90
16655;DHT22;8441;51.344;7.022;2023-09-30T15:31:37;17.70;99.90
16655;DHT22;8441;51.344;7.022;2023-09-30T15:34:05;17.60;99.90
16655;DHT22;8441;51.344;7.022;2023-09-30T15:36:35;17.50;99.90
16655;DHT22;8441;51.344;7.022;2023-09-30T15:39:02;17.40;99.90
16655;DHT22;8441;51.344;7.022;2023-09-30T15:41:29;17.30;99.90
16655;DHT22;8441;51.344;7.022;2023-09-30T15:43:59;17.20;99.90
16655;DHT22;8441;51.344;7.022;2023-09-30T15:46:27;17.10;99.90
16655;DHT22;8441;51.344;7.022;2023-09-30T15:48:54;17.00;99.90
16655;DHT22;8441;51.344;7.022;2023-09-30T15:51:21;17.00;99.90
16655;DHT22;8441;51.344;7.022;2023-09-30T15:53:49;17.00;99.90